Time;durP1;ratioP1;P1;durP2;ratioP2;P2;SDS_P1;SDS_P2;PMS_P1;PMS_P2;Temp;Humidity;BMP_temperature;BMP_pressure;BME280_temperature;BME280_humidity;BME280_pressure;Samples;Min_cycle;Max_cycle;Signal;HPM_P1;HPM_P2
2023/03/18 00:01:02;;;;;;;9.53;5.90;;;8.80;99.90;;;;;;5093658;28;20482;-83
2023/03/18 00:03:31;;;;;;;11.50;5.73;;;8.80;99.90;;;;;;5093761;28;20463;-83
2023/03/18 00:06:06;;;;;;;8.23;4.70;;;8.80;99.90;;;;;;5093354;28;20443;-82
2023/03/18 00:08:33;;;;;;;6.83;6.00;;;8.90;99.90;;;;;;5093874;28;20789;-82
2023/03/18 00:11:00;;;;;;;9.03;6.20;;;8.90;99.90;;;;;;5094789;28;20506;-83
2023/03/18 00:13:28;;;;;;;7.87;6.50;;;;;;;;;;5096184;28;20449;-82
2023/03/18 00:15:56;;;;;;;10.17;6.10;;;8.60;1.00;;;;;;5099210;28;20443;-83
2023/03/18 00:18:23;;;;;;;10.13;5.80;;;8.80;1.00;;;;;;5099469;28;20498;-83
2023/03/18 00:20:50;;;;;;;6.63;6.13;;;8.70;1.00;;;;;;5100639;28;20474;-82
2023/03/18 00:23:17;;;;;;;6.10;5.50;;;8.80;99.90;;;;;;5100514;28;20472;-81
2023/03/18 00:25:47;;;;;;;12.40;5.80;;;8.80;99.90;;;;;;5097263;28;20472;-83
2023/03/18 00:28:14;;;;;;;15.47;7.10;;;;;;;;;;5095403;28;20455;-83
2023/03/18 00:30:41;;;;;;;11.03;5.90;;;8.70;99.90;;;;;;5095589;28;20445;-82
2023/03/18 00:33:11;;;;;;;7.57;5.60;;;8.70;99.90;;;;;;5094214;28;20474;-84
2023/03/18 00:35:41;;;;;;;8.80;6.20;;;8.80;1.00;;;;;;5092523;28;20448;-83
2023/03/18 00:38:14;;;;;;;7.50;5.57;;;8.60;99.90;;;;;;5088285;28;20430;-83
2023/03/18 00:40:52;;;;;;;8.27;5.17;;;8.60;99.90;;;;;;5083787;28;20866;-82
2023/03/18 00:43:21;;;;;;;8.70;5.90;;;8.80;1.00;;;;;;5084982;28;20467;-82
2023/03/18 00:45:50;;;;;;;8.10;6.13;;;8.60;99.90;;;;;;5086746;28;20425;-83
2023/03/18 00:48:18;;;;;;;9.03;5.30;;;8.60;99.90;;;;;;5088951;28;20430;-82
2023/03/18 00:50:45;;;;;;;9.30;5.53;;;8.50;99.90;;;;;;5090130;28;20448;-83
2023/03/18 00:53:13;;;;;;;6.30;5.43;;;8.50;99.90;;;;;;5091245;28;20452;-82
2023/03/18 00:55:40;;;;;;;6.10;5.03;;;8.60;1.00;;;;;;5095000;28;20455;-82
2023/03/18 00:58:08;;;;;;;6.70;5.53;;;8.50;99.90;;;;;;5095204;28;20491;-81
2023/03/18 01:00:36;;;;;;;8.77;6.43;;;8.50;99.90;;;;;;5097894;28;20443;-80
2023/03/18 01:03:03;;;;;;;11.20;5.40;;;8.50;99.90;;;;;;5098231;28;20529;-81
2023/03/18 01:05:32;;;;;;;6.00;5.37;;;8.40;99.90;;;;;;5097726;28;20500;-82
2023/03/18 01:07:59;;;;;;;8.57;5.43;;;8.30;1.00;;;;;;5098102;28;20450;-82
2023/03/18 01:10:29;;;;;;;7.83;5.97;;;8.40;99.90;;;;;;5097623;28;20479;-81
2023/03/18 01:12:56;;;;;;;8.60;7.07;;;;;;;;;;5096063;28;20458;-82
2023/03/18 01:15:23;;;;;;;6.33;5.00;;;8.40;99.90;;;;;;5094779;28;20506;-81
2023/03/18 01:17:53;;;;;;;11.03;6.00;;;8.40;99.90;;;;;;5093897;28;20476;-83
2023/03/18 01:20:20;;;;;;;10.37;5.90;;;8.40;99.90;;;;;;5094191;28;20486;-81
2023/03/18 01:22:49;;;;;;;8.07;5.87;;;8.40;99.90;;;;;;5094166;28;20487;-81
2023/03/18 01:25:16;;;;;;;6.50;4.73;;;8.30;99.90;;;;;;5091905;28;20468;-83
2023/03/18 01:27:43;;;;;;;7.23;5.13;;;8.30;99.90;;;;;;5093585;28;20481;-82
2023/03/18 01:30:12;;;;;;;15.47;8.60;;;8.30;99.90;;;;;;5094075;28;20928;-82
2023/03/18 01:32:40;;;;;;;6.00;5.47;;;8.30;99.90;;;;;;5081938;28;20467;-82
2023/03/18 01:35:07;;;;;;;7.80;5.20;;;8.30;99.90;;;;;;5083273;28;20454;-81
2023/03/18 01:37:34;;;;;;;5.77;5.27;;;8.30;99.90;;;;;;5084956;28;20533;-81
2023/03/18 01:40:02;;;;;;;7.87;5.30;;;8.30;99.90;;;;;;5091351;28;20462;-82
2023/03/18 01:42:30;;;;;;;6.67;6.10;;;8.30;99.90;;;;;;5093781;28;20489;-83
2023/03/18 01:45:16;;;;;;;8.30;5.23;;;8.20;99.90;;;;;;5093569;28;20453;-82
2023/03/18 01:47:45;;;;;;;7.23;4.87;;;8.30;99.90;;;;;;5093680;28;20905;-80
2023/03/18 01:50:13;;;;;;;6.60;5.27;;;8.20;99.90;;;;;;5097362;28;20489;-81
2023/03/18 01:52:41;;;;;;;6.13;5.53;;;8.20;99.90;;;;;;5095992;28;20470;-81
2023/03/18 01:55:13;;;;;;;9.93;6.70;;;8.20;99.90;;;;;;5089615;28;20428;-83
2023/03/18 01:57:41;;;;;;;5.67;4.77;;;8.20;99.90;;;;;;5078506;28;20412;-83
2023/03/18 02:00:10;;;;;;;10.90;7.33;;;8.00;1.00;;;;;;5080682;28;20451;-82
2023/03/18 02:02:40;;;;;;;10.23;5.90;;;8.20;99.90;;;;;;5081649;28;20497;-82
2023/03/18 02:05:10;;;;;;;5.73;4.93;;;8.20;99.90;;;;;;5083847;28;20465;-83
2023/03/18 02:07:38;;;;;;;6.33;4.27;;;8.20;99.90;;;;;;5086654;28;20445;-82
2023/03/18 02:10:09;;;;;;;6.73;5.17;;;8.20;99.90;;;;;;5093073;28;20443;-81
2023/03/18 02:12:39;;;;;;;7.30;4.60;;;8.20;99.90;;;;;;5095705;28;20936;-83
2023/03/18 02:15:10;;;;;;;7.50;5.20;;;8.00;1.00;;;;;;5093104;28;20447;-82
2023/03/18 02:17:42;;;;;;;4.97;4.57;;;8.20;99.90;;;;;;5092302;28;20406;-82
2023/03/18 02:20:21;;;;;;;6.70;5.03;;;8.20;99.90;;;;;;5092466;28;20408;-82
2023/03/18 02:22:52;;;;;;;6.23;5.00;;;8.20;99.90;;;;;;5091556;28;20516;-83
2023/03/18 02:25:30;;;;;;;7.07;5.90;;;8.20;99.90;;;;;;5092360;28;20439;-83
2023/03/18 02:28:02;;;;;;;5.50;4.97;;;8.10;1.00;;;;;;5093257;28;20430;-83
2023/03/18 02:30:33;;;;;;;6.30;5.23;;;8.20;99.90;;;;;;5092147;28;20482;-82
2023/03/18 02:33:02;;;;;;;6.90;5.20;;;8.20;99.90;;;;;;5098473;28;20562;-82
2023/03/18 02:35:30;;;;;;;7.17;5.00;;;8.30;99.90;;;;;;5093743;28;20406;-82
2023/03/18 02:37:58;;;;;;;5.63;4.60;;;8.30;99.90;;;;;;5097161;28;20418;-82
2023/03/18 02:40:31;;;;;;;7.17;6.40;;;8.30;99.90;;;;;;5090976;28;20417;-84
2023/03/18 02:43:18;;;;;;;9.80;5.10;;;8.30;99.90;;;;;;5088359;22;21069;-78
2023/03/18 02:45:54;;;;;;;9.60;6.40;;;8.30;99.90;;;;;;5054811;28;20428;-76
2023/03/18 02:48:26;;;;;;;11.30;5.83;;;8.30;99.90;;;;;;5054599;28;20447;-78
2023/03/18 02:50:53;;;;;;;7.40;5.93;;;8.20;99.90;;;;;;5054498;28;20878;-77
2023/03/18 02:53:20;;;;;;;7.33;5.30;;;8.20;99.90;;;;;;5054752;28;20830;-78
2023/03/18 02:55:47;;;;;;;8.13;5.40;;;8.20;99.90;;;;;;5055079;28;20531;-78
2023/03/18 02:58:15;;;;;;;5.97;5.47;;;8.20;99.90;;;;;;5055465;28;20502;-78
2023/03/18 03:00:42;;;;;;;6.10;4.50;;;8.20;99.90;;;;;;5055723;28;20426;-77
2023/03/18 03:03:09;;;;;;;7.50;5.33;;;8.20;99.90;;;;;;5055091;28;20515;-77
2023/03/18 03:05:36;;;;;;;5.73;5.13;;;8.20;99.90;;;;;;5054573;28;20454;-79
2023/03/18 03:08:04;;;;;;;6.80;6.10;;;8.20;99.90;;;;;;5054169;28;20419;-78
2023/03/18 03:10:30;;;;;;;7.97;5.00;;;8.20;99.90;;;;;;5054132;28;20455;-78
2023/03/18 03:12:57;;;;;;;9.10;5.60;;;8.20;99.90;;;;;;5053936;28;20462;-77
2023/03/18 03:15:27;;;;;;;6.70;5.00;;;8.20;99.90;;;;;;5053941;28;20430;-77
2023/03/18 03:17:54;;;;;;;8.30;5.13;;;8.20;99.90;;;;;;5053239;28;20515;-77
2023/03/18 03:20:22;;;;;;;5.63;5.13;;;8.20;99.90;;;;;;5052797;28;20447;-79
2023/03/18 03:22:49;;;;;;;8.10;5.40;;;8.10;99.90;;;;;;5054860;28;20498;-77
2023/03/18 03:25:16;;;;;;;12.53;7.50;;;8.10;99.90;;;;;;5057853;28;20447;-77
2023/03/18 03:27:43;;;;;;;10.17;6.03;;;8.00;99.90;;;;;;5058067;28;20454;-77
2023/03/18 03:30:12;;;;;;;7.33;6.20;;;8.10;99.90;;;;;;5057320;28;20448;-77
2023/03/18 03:32:41;;;;;;;10.80;6.83;;;8.10;99.90;;;;;;5057245;28;20465;-78
2023/03/18 03:35:12;;;;;;;9.73;5.87;;;8.20;99.90;;;;;;5058204;28;20506;-78
2023/03/18 03:37:39;;;;;;;13.30;6.20;;;8.10;99.90;;;;;;5058226;28;20790;-78
2023/03/18 03:40:07;;;;;;;12.77;5.70;;;8.10;99.90;;;;;;5057993;28;20498;-78
2023/03/18 03:42:34;;;;;;;5.93;5.37;;;8.20;99.90;;;;;;5058037;28;20497;-78
2023/03/18 03:45:00;;;;;;;7.67;5.97;;;8.20;99.90;;;;;;5058002;28;20501;-78
2023/03/18 03:47:27;;;;;;;10.20;5.20;;;8.20;99.90;;;;;;5058106;28;20429;-78
2023/03/18 03:49:56;;;;;;;6.40;5.80;;;8.20;99.90;;;;;;5059089;28;20441;-78
2023/03/18 03:52:23;;;;;;;7.00;5.63;;;8.20;99.90;;;;;;5057891;28;20473;-78
2023/03/18 03:54:50;;;;;;;8.47;5.90;;;8.20;99.90;;;;;;5058423;28;20949;-78
2023/03/18 03:57:17;;;;;;;10.33;6.50;;;8.10;99.90;;;;;;5063561;28;20455;-77
2023/03/18 03:59:44;;;;;;;8.37;6.03;;;8.10;99.90;;;;;;5075164;28;20455;-77
2023/03/18 04:02:12;;;;;;;6.53;5.90;;;8.10;99.90;;;;;;5073443;28;20547;-78
2023/03/18 04:04:39;;;;;;;9.83;5.70;;;8.00;99.90;;;;;;5058330;28;20899;-78
2023/03/18 04:07:07;;;;;;;9.47;5.80;;;8.00;99.90;;;;;;5057655;28;20552;-79
2023/03/18 04:09:35;;;;;;;6.90;5.83;;;7.90;99.90;;;;;;5057192;28;20983;-78
2023/03/18 04:12:02;;;;;;;9.10;5.47;;;7.70;1.00;;;;;;5057194;28;20447;-78
2023/03/18 04:14:29;;;;;;;12.20;6.00;;;;;;;;;;5057881;28;20479;-79
2023/03/18 04:16:57;;;;;;;9.87;6.47;;;7.80;99.90;;;;;;5056941;28;20455;-78
2023/03/18 04:19:24;;;;;;;7.60;6.03;;;8.00;99.90;;;;;;5056847;28;20451;-78
2023/03/18 04:21:52;;;;;;;10.57;5.63;;;7.90;1.00;;;;;;5056821;28;20455;-78
2023/03/18 04:24:21;;;;;;;12.33;6.30;;;7.80;99.90;;;;;;5057360;28;20459;-78
2023/03/18 04:26:48;;;;;;;7.50;5.17;;;7.80;99.90;;;;;;5073480;28;20409;-78
2023/03/18 04:29:15;;;;;;;8.70;7.13;;;7.80;99.90;;;;;;5080212;28;20437;-76
2023/03/18 04:31:43;;;;;;;6.27;5.70;;;7.80;99.90;;;;;;5074908;28;20447;-78
2023/03/18 04:34:10;;;;;;;8.50;6.00;;;7.80;99.90;;;;;;5056911;28;20487;-78
2023/03/18 04:36:37;;;;;;;6.40;5.80;;;7.80;99.90;;;;;;5057200;28;20447;-78
2023/03/18 04:39:04;;;;;;;5.60;4.90;;;7.80;99.90;;;;;;5056779;28;20457;-78
2023/03/18 04:41:32;;;;;;;8.33;5.47;;;7.90;99.90;;;;;;5056783;28;20518;-78
2023/03/18 04:43:59;;;;;;;8.27;6.10;;;7.90;99.90;;;;;;5056461;28;20470;-78
2023/03/18 04:46:28;;;;;;;13.80;5.60;;;7.90;99.90;;;;;;5056602;28;20804;-78
2023/03/18 04:48:57;;;;;;;7.77;7.00;;;7.80;99.90;;;;;;5056927;28;20451;-78
2023/03/18 04:51:24;;;;;;;8.00;6.13;;;7.80;99.90;;;;;;5056717;28;20459;-78
2023/03/18 04:53:50;;;;;;;7.43;6.00;;;7.70;99.90;;;;;;5055932;28;20555;-78
2023/03/18 04:56:18;;;;;;;6.63;5.93;;;7.70;99.90;;;;;;5060862;28;20523;-78
2023/03/18 04:58:46;;;;;;;6.30;5.30;;;7.60;99.90;;;;;;5063423;28;20448;-79
2023/03/18 05:01:13;;;;;;;9.00;6.10;;;7.70;99.90;;;;;;5063758;28;21026;-78
2023/03/18 05:03:40;;;;;;;6.53;5.57;;;7.70;99.90;;;;;;5056971;28;20487;-79
2023/03/18 05:06:08;;;;;;;9.70;5.60;;;7.60;99.90;;;;;;5056820;28;20450;-78
2023/03/18 05:08:35;;;;;;;8.37;5.97;;;7.50;99.90;;;;;;5057605;28;20454;-80
2023/03/18 05:11:02;;;;;;;6.13;5.53;;;7.50;99.90;;;;;;5055429;28;20881;-78
2023/03/18 05:13:29;;;;;;;7.20;5.50;;;7.40;99.90;;;;;;5054999;28;20834;-79
2023/03/18 05:15:58;;;;;;;6.60;5.43;;;7.40;99.90;;;;;;5056515;28;20436;-79
2023/03/18 05:18:25;;;;;;;7.73;5.83;;;7.40;99.90;;;;;;5056185;28;20971;-79
2023/03/18 05:20:52;;;;;;;11.27;5.90;;;7.30;99.90;;;;;;5056566;28;20452;-78
2023/03/18 05:23:19;;;;;;;8.93;5.77;;;7.80;1.00;;;;;;5061349;28;20795;-79
2023/03/18 05:25:49;;;;;;;6.87;5.60;;;7.30;99.90;;;;;;5060612;28;20518;-78
2023/03/18 05:28:16;;;;;;;13.63;6.43;;;7.30;99.90;;;;;;5062504;28;20444;-78
2023/03/18 05:30:43;;;;;;;8.17;6.27;;;7.30;99.90;;;;;;5057724;28;20418;-79
2023/03/18 05:33:11;;;;;;;7.73;5.53;;;7.30;99.90;;;;;;5054943;28;20485;-79
2023/03/18 05:35:38;;;;;;;9.10;6.20;;;7.20;99.90;;;;;;5054374;28;20467;-77
2023/03/18 05:38:05;;;;;;;6.23;5.73;;;7.30;99.90;;;;;;5055337;28;20455;-79
2023/03/18 05:40:33;;;;;;;9.50;6.10;;;7.20;99.90;;;;;;5055857;28;20428;-79
2023/03/18 05:42:59;;;;;;;10.53;6.03;;;7.20;99.90;;;;;;5055478;28;20530;-78
2023/03/18 05:45:26;;;;;;;7.97;5.47;;;7.20;99.90;;;;;;5053786;28;20463;-78
2023/03/18 05:47:53;;;;;;;8.07;6.00;;;7.30;99.90;;;;;;5055116;28;20455;-78
2023/03/18 05:50:30;;;;;;;7.10;5.80;;;7.50;1.00;;;;;;5054077;28;20815;-79
2023/03/18 05:52:57;;;;;;;8.17;5.90;;;7.20;99.90;;;;;;5055141;28;20532;-79
2023/03/18 05:55:24;;;;;;;7.17;6.10;;;7.30;99.90;;;;;;5053958;28;20465;-78
2023/03/18 05:57:51;;;;;;;7.10;5.87;;;7.30;1.00;;;;;;5054950;28;20443;-78
2023/03/18 06:00:19;;;;;;;9.63;6.73;;;7.20;99.90;;;;;;5059944;28;20449;-79
2023/03/18 06:02:46;;;;;;;7.37;5.70;;;7.30;99.90;;;;;;5059600;28;20848;-78
2023/03/18 06:05:14;;;;;;;7.43;5.70;;;7.30;99.90;;;;;;5059239;28;20485;-78
2023/03/18 06:07:42;;;;;;;6.40;5.80;;;7.30;99.90;;;;;;5057156;28;20456;-78
2023/03/18 06:10:11;;;;;;;9.10;6.30;;;7.20;1.00;;;;;;5053558;28;20849;-78
2023/03/18 06:12:38;;;;;;;7.60;6.10;;;7.30;99.90;;;;;;5053560;28;20482;-78
2023/03/18 06:15:06;;;;;;;8.10;6.10;;;7.40;99.90;;;;;;5053673;28;20452;-79
2023/03/18 06:17:33;;;;;;;10.30;6.43;;;7.40;99.90;;;;;;5055507;28;20966;-78
2023/03/18 06:20:00;;;;;;;10.07;7.60;;;7.40;99.90;;;;;;5056575;28;20910;-79
2023/03/18 06:22:27;;;;;;;10.60;7.30;;;7.30;99.90;;;;;;5056228;28;20447;-79
2023/03/18 06:24:55;;;;;;;8.90;5.97;;;7.40;99.90;;;;;;5056264;28;20774;-79
2023/03/18 06:27:22;;;;;;;9.47;5.57;;;7.40;99.90;;;;;;5060318;28;20505;-78
2023/03/18 06:29:49;;;;;;;8.87;6.10;;;7.40;99.90;;;;;;5060571;28;20508;-79
2023/03/18 06:32:16;;;;;;;10.67;8.20;;;7.30;99.90;;;;;;5061526;28;20477;-78
2023/03/18 06:34:44;;;;;;;9.13;6.40;;;7.30;99.90;;;;;;5059924;28;20486;-78
2023/03/18 06:37:11;;;;;;;9.50;6.40;;;7.30;99.90;;;;;;5058612;28;20433;-78
2023/03/18 06:39:38;;;;;;;5.83;5.27;;;7.30;99.90;;;;;;5057292;28;20425;-78
2023/03/18 06:42:06;;;;;;;7.37;5.63;;;7.30;99.90;;;;;;5054680;28;20569;-78
2023/03/18 06:44:34;;;;;;;9.20;5.83;;;7.30;99.90;;;;;;5062528;28;20446;-78
2023/03/18 06:47:00;;;;;;;9.10;6.50;;;7.40;99.90;;;;;;5062999;28;20505;-78
2023/03/18 06:49:27;;;;;;;6.17;5.50;;;7.50;99.90;;;;;;5061196;28;20512;-78
2023/03/18 06:51:55;;;;;;;8.00;6.57;;;7.20;1.00;;;;;;5061999;28;20450;-78
2023/03/18 06:54:22;;;;;;;9.17;6.60;;;7.60;99.90;;;;;;5061959;28;20555;-77
2023/03/18 06:56:48;;;;;;;8.00;6.40;;;7.60;99.90;;;;;;5062193;28;20457;-78
2023/03/18 06:59:18;;;;;;;7.60;6.37;;;7.70;99.90;;;;;;5065609;28;20451;-78
2023/03/18 07:01:45;;;;;;;6.90;6.13;;;7.60;99.90;;;;;;5065304;28;20451;-77
2023/03/18 07:04:12;;;;;;;8.40;6.97;;;7.70;99.90;;;;;;5063058;28;20529;-78
2023/03/18 07:06:39;;;;;;;7.43;6.20;;;7.70;99.90;;;;;;5059725;28;20440;-78
2023/03/18 07:09:06;;;;;;;7.10;6.10;;;7.70;99.90;;;;;;5060232;28;20455;-78
2023/03/18 07:11:33;;;;;;;6.00;5.40;;;7.70;99.90;;;;;;5064729;28;20458;-78
2023/03/18 07:14:00;;;;;;;10.53;6.30;;;7.70;99.90;;;;;;5074683;28;20463;-77
2023/03/18 07:16:29;;;;;;;15.27;11.03;;;7.70;99.90;;;;;;5077846;28;20448;-78
2023/03/18 07:18:57;;;;;;;10.50;6.70;;;7.80;99.90;;;;;;5058167;28;20451;-78
2023/03/18 07:21:24;;;;;;;8.97;6.13;;;7.90;99.90;;;;;;5059678;28;20450;-80
2023/03/18 07:23:54;;;;;;;9.20;6.50;;;8.00;99.90;;;;;;5060398;28;20499;-78
2023/03/18 07:26:20;;;;;;;10.90;6.27;;;8.10;99.90;;;;;;5067023;28;20455;-79
2023/03/18 07:28:47;;;;;;;6.90;6.00;;;8.10;99.90;;;;;;5066260;28;20471;-78
2023/03/18 07:31:15;;;;;;;6.70;5.67;;;8.20;99.90;;;;;;5065518;28;21023;-80
2023/03/18 07:33:43;;;;;;;8.23;6.10;;;8.30;99.90;;;;;;5058974;28;20987;-78
2023/03/18 07:36:10;;;;;;;9.63;5.93;;;8.30;99.90;;;;;;5061439;28;21039;-78
2023/03/18 07:38:38;;;;;;;7.33;6.50;;;8.30;99.90;;;;;;5061286;28;20433;-78
2023/03/18 07:41:06;;;;;;;8.30;6.23;;;8.40;99.90;;;;;;5059818;28;20469;-79
2023/03/18 07:43:34;;;;;;;11.93;7.57;;;8.40;99.90;;;;;;5060398;28;20491;-79
2023/03/18 07:46:01;;;;;;;6.50;5.80;;;8.50;99.90;;;;;;5059691;28;20474;-79
2023/03/18 07:48:29;;;;;;;9.30;8.10;;;8.60;99.90;;;;;;5058421;28;20501;-79
2023/03/18 07:50:59;;;;;;;8.90;6.53;;;8.60;99.90;;;;;;5058110;28;20542;-79
2023/03/18 07:53:26;;;;;;;7.70;6.80;;;8.70;99.90;;;;;;5057953;28;20978;-78
2023/03/18 07:55:53;;;;;;;11.93;6.80;;;8.70;99.90;;;;;;5058670;28;20426;-79
2023/03/18 07:58:20;;;;;;;8.80;6.33;;;8.80;99.90;;;;;;5059174;28;20482;-80
2023/03/18 08:00:48;;;;;;;6.93;5.80;;;8.90;99.90;;;;;;5059789;28;20454;-79
2023/03/18 08:03:15;;;;;;;7.47;6.47;;;9.00;99.90;;;;;;5059678;28;20487;-79
2023/03/18 08:05:42;;;;;;;7.97;6.27;;;9.10;99.90;;;;;;5058534;28;20501;-79
2023/03/18 08:08:10;;;;;;;6.87;5.87;;;9.10;99.90;;;;;;5056335;28;20460;-79
2023/03/18 08:10:37;;;;;;;8.67;6.73;;;9.10;99.90;;;;;;5056877;28;20449;-79
2023/03/18 08:13:04;;;;;;;9.10;6.07;;;9.20;99.90;;;;;;5057379;28;20476;-78
2023/03/18 08:15:31;;;;;;;11.33;6.83;;;9.20;99.90;;;;;;5057274;28;20501;-79
2023/03/18 08:17:58;;;;;;;9.00;6.83;;;9.40;99.90;;;;;;5057108;28;20443;-78
2023/03/18 08:20:26;;;;;;;8.40;7.50;;;9.50;99.90;;;;;;5056271;28;20455;-78
2023/03/18 08:22:53;;;;;;;7.93;5.30;;;9.60;99.90;;;;;;5057192;28;20472;-79
2023/03/18 08:25:22;;;;;;;9.67;6.50;;;9.70;99.90;;;;;;5055913;28;20495;-79
2023/03/18 08:27:49;;;;;;;7.70;6.63;;;9.80;99.90;;;;;;5056502;28;21013;-79
2023/03/18 08:30:16;;;;;;;7.53;5.73;;;9.90;99.90;;;;;;5056837;28;20448;-79
2023/03/18 08:32:43;;;;;;;8.50;7.10;;;10.10;99.90;;;;;;5057072;28;20447;-79
2023/03/18 08:35:10;;;;;;;6.90;5.53;;;10.30;99.90;;;;;;5058446;28;20535;-80
2023/03/18 08:37:37;;;;;;;7.13;5.70;;;10.30;99.90;;;;;;5057351;28;20457;-79
2023/03/18 08:40:05;;;;;;;6.20;5.60;;;10.50;99.90;;;;;;5058793;28;20432;-79
2023/03/18 08:42:33;;;;;;;9.30;6.97;;;10.90;99.90;;;;;;5073367;22;20548;-82
2023/03/18 08:45:01;;;;;;;7.13;5.43;;;;;;;;;;5079400;28;21025;-84
2023/03/18 08:47:35;;;;;;;10.70;7.53;;;11.50;1.00;;;;;;5092002;28;20444;-83
2023/03/18 08:50:09;;;;;;;10.57;7.10;;;11.40;99.90;;;;;;5098528;28;20485;-82
2023/03/18 08:52:38;;;;;;;9.83;6.60;;;11.40;99.90;;;;;;5082418;28;20448;-84
2023/03/18 08:55:06;;;;;;;9.50;6.07;;;11.60;1.00;;;;;;5080383;28;20493;-82
2023/03/18 08:57:34;;;;;;;6.73;6.03;;;11.30;1.00;;;;;;5078560;28;20510;-83
2023/03/18 09:00:01;;;;;;;8.40;5.83;;;11.60;99.90;;;;;;5078974;28;20448;-84
2023/03/18 09:02:28;;;;;;;5.47;4.97;;;11.40;1.00;;;;;;5077862;28;20456;-83
2023/03/18 09:04:55;;;;;;;9.10;5.90;;;11.60;99.90;;;;;;5079267;28;20512;-83
2023/03/18 09:07:22;;;;;;;9.67;6.50;;;11.70;99.90;;;;;;5078272;28;20850;-83
2023/03/18 09:09:49;;;;;;;9.00;5.80;;;11.90;99.90;;;;;;5078738;28;20456;-84
2023/03/18 09:12:16;;;;;;;6.40;5.70;;;11.80;99.90;;;;;;5078014;28;20485;-81
2023/03/18 09:14:46;;;;;;;8.13;5.90;;;11.80;99.90;;;;;;5078409;28;20505;-82
2023/03/18 09:17:13;;;;;;;7.60;6.07;;;11.90;99.90;;;;;;5078232;28;20455;-82
2023/03/18 09:19:40;;;;;;;9.07;7.20;;;11.90;99.90;;;;;;5078479;28;20465;-83
2023/03/18 09:22:08;;;;;;;7.53;6.40;;;11.90;99.90;;;;;;5077804;28;20458;-83
2023/03/18 09:24:35;;;;;;;6.30;5.70;;;12.10;99.90;;;;;;5079180;28;20491;-84
2023/03/18 09:27:01;;;;;;;7.57;5.77;;;12.30;1.00;;;;;;5079099;28;20447;-83
2023/03/18 09:29:28;;;;;;;10.63;6.50;;;12.20;99.90;;;;;;5078004;28;20463;-84
2023/03/18 09:31:56;;;;;;;6.63;5.93;;;12.10;99.90;;;;;;5082138;28;20860;-82
2023/03/18 09:34:23;;;;;;;8.10;6.63;;;12.10;99.90;;;;;;5084136;28;20463;-82
2023/03/18 09:36:51;;;;;;;8.40;6.33;;;12.10;99.90;;;;;;5084184;28;20513;-81
2023/03/18 09:39:18;;;;;;;7.87;7.03;;;12.10;99.90;;;;;;5084065;28;20447;-82
2023/03/18 09:41:57;;;;;;;11.77;7.10;;;12.10;99.90;;;;;;5081186;28;20805;-82
2023/03/18 09:44:28;;;;;;;7.77;6.30;;;12.20;1.00;;;;;;5078387;28;20579;-83
2023/03/18 09:47:06;;;;;;;8.93;6.03;;;12.30;99.90;;;;;;5078664;28;20431;-82
2023/03/18 09:49:50;;;;;;;9.37;6.13;;;12.20;99.90;;;;;;5079572;28;20440;-82
2023/03/18 09:52:22;;;;;;;8.07;7.00;;;12.70;1.00;;;;;;5091618;28;20443;-80
2023/03/18 09:54:56;;;;;;;8.23;6.60;;;12.40;99.90;;;;;;5089272;28;20945;-80
2023/03/18 09:57:26;;;;;;;9.70;6.23;;;12.50;99.90;;;;;;5084032;28;20435;-83
2023/03/18 09:59:57;;;;;;;7.93;5.50;;;12.60;99.90;;;;;;5080472;28;20473;-83
2023/03/18 10:02:32;;;;;;;6.53;5.43;;;13.20;1.00;;;;;;5078511;28;20861;-83
2023/03/18 10:05:03;;;;;;;8.30;6.57;;;12.80;1.00;;;;;;5078464;28;20471;-83
2023/03/18 10:07:36;;;;;;;6.57;5.87;;;13.00;1.00;;;;;;5078450;28;20434;-83
2023/03/18 10:10:09;;;;;;;8.23;6.30;;;13.00;1.00;;;;;;5078532;28;20501;-82
2023/03/18 10:12:40;;;;;;;9.20;6.73;;;13.40;1.00;;;;;;5077346;28;20452;-82
2023/03/18 10:15:15;;;;;;;7.13;6.40;;;13.30;1.00;;;;;;5078770;28;20514;-82
2023/03/18 10:17:48;;;;;;;9.20;6.07;;;13.40;1.00;;;;;;5084999;28;20490;-82
2023/03/18 10:20:19;;;;;;;11.37;6.50;;;13.40;1.00;;;;;;5086885;28;20929;-84
2023/03/18 10:22:56;;;;;;;8.23;6.17;;;13.50;1.00;;;;;;5079623;28;20474;-82
2023/03/18 10:25:27;;;;;;;7.87;6.60;;;13.50;99.90;;;;;;5079613;28;20471;-82
2023/03/18 10:28:08;;;;;;;7.77;6.53;;;13.60;1.00;;;;;;5082473;28;20470;-82
2023/03/18 10:30:47;;;;;;;10.73;7.23;;;13.90;1.00;;;;;;5078596;28;20436;-82
2023/03/18 10:33:22;;;;;;;8.13;6.03;;;14.00;1.00;;;;;;5078277;28;20473;-82
2023/03/18 10:36:03;;;;;;;9.43;7.03;;;14.20;1.00;;;;;;5078449;28;20427;-81
2023/03/18 10:38:35;;;;;;;7.70;5.90;;;14.70;1.00;;;;;;5077956;28;20439;-83
2023/03/18 10:41:02;;;;;;;7.73;6.20;;;14.10;1.00;;;;;;5077528;28;20527;-83
2023/03/18 10:43:32;;;;;;;7.03;5.93;;;14.30;1.00;;;;;;5078584;28;20981;-83
2023/03/18 10:46:02;;;;;;;7.10;5.70;;;14.40;1.00;;;;;;5077786;28;20472;-83
2023/03/18 10:48:34;;;;;;;6.20;5.60;;;14.40;1.00;;;;;;5078653;28;20454;-83
2023/03/18 10:51:09;;;;;;;9.97;6.13;;;14.40;1.00;;;;;;5078835;28;20540;-83
2023/03/18 10:53:42;;;;;;;7.90;5.90;;;14.30;1.00;;;;;;5080657;28;20472;-82
2023/03/18 10:56:30;;;;;;;7.70;5.17;;;14.30;1.00;;;;;;5091811;28;20511;-81
2023/03/18 10:58:57;;;;;;;8.90;6.83;;;14.50;1.00;;;;;;5080120;28;20481;-83
2023/03/18 11:01:27;;;;;;;6.70;5.60;;;14.60;1.00;;;;;;5077648;28;20440;-83
2023/03/18 11:04:02;;;;;;;7.33;6.03;;;14.70;1.00;;;;;;5078480;28;20474;-82
2023/03/18 11:06:37;;;;;;;8.60;6.90;;;14.80;1.00;;;;;;5078569;28;20492;-83
2023/03/18 11:09:07;;;;;;;9.43;6.80;;;15.20;1.00;;;;;;5078534;28;20479;-83
2023/03/18 11:11:35;;;;;;;9.07;6.47;;;14.90;1.00;;;;;;5080072;28;20437;-81
2023/03/18 11:14:07;;;;;;;11.37;7.07;;;15.10;1.00;;;;;;5085291;28;20529;-81
2023/03/18 11:16:39;;;;;;;7.03;5.97;;;15.30;1.00;;;;;;5085434;28;20438;-82
2023/03/18 11:19:28;;;;;;;9.33;5.60;;;15.60;1.00;;;;;;5084017;28;20436;-82
2023/03/18 11:22:05;;;;;;;6.50;5.80;;;15.60;1.00;;;;;;5087769;28;20438;-83
2023/03/18 11:24:38;;;;;;;6.47;5.70;;;15.90;1.00;;;;;;5091243;28;20575;-83
2023/03/18 11:27:21;;;;;;;7.40;6.13;;;16.20;1.00;;;;;;5083236;28;20458;-81
2023/03/18 11:29:53;;;;;;;7.00;5.77;;;16.30;1.00;;;;;;5083252;28;20448;-84
2023/03/18 11:32:25;;;;;;;7.90;4.90;;;15.80;1.00;;;;;;5081151;28;20446;-82
2023/03/18 11:34:59;;;;;;;7.03;5.53;;;15.80;1.00;;;;;;5079712;28;20460;-84
2023/03/18 11:37:34;;;;;;;7.33;5.40;;;15.70;1.00;;;;;;5082858;28;20432;-83
2023/03/18 11:40:25;;;;;;;7.03;5.57;;;15.90;1.00;;;;;;5079310;28;20451;-82
2023/03/18 11:42:56;;;;;;;8.87;6.00;;;16.00;1.00;;;;;;5073597;28;20488;-82
2023/03/18 11:45:43;;;;;;;7.53;6.80;;;16.00;1.00;;;;;;5080387;28;20478;-83
2023/03/18 11:48:22;;;;;;;7.37;6.27;;;15.90;1.00;;;;;;5081758;28;20432;-82
2023/03/18 11:51:21;;;;;;;8.33;6.10;;;16.00;1.00;;;;;;5084036;28;20450;-84
2023/03/18 11:54:05;;;;;;;7.10;6.40;;;16.10;1.00;;;;;;5070149;28;20481;-83
2023/03/18 11:56:37;;;;;;;8.10;6.10;;;16.00;1.00;;;;;;5084275;28;20480;-84
2023/03/18 11:59:31;;;;;;;10.37;6.00;;;16.00;1.00;;;;;;5089437;28;20436;-82
2023/03/18 12:02:19;;;;;;;9.70;5.50;;;16.00;1.00;;;;;;5082684;28;20451;-83
2023/03/18 12:05:04;;;;;;;9.70;4.90;;;15.90;1.00;;;;;;5090980;28;20514;-82
2023/03/18 12:08:02;;;;;;;6.13;5.03;;;16.00;1.00;;;;;;5093997;28;20443;-82
2023/03/18 12:10:34;;;;;;;6.00;5.40;;;15.90;1.00;;;;;;5091632;28;20450;-83
2023/03/18 12:13:25;;;;;;;6.80;5.20;;;16.00;1.00;;;;;;5080726;28;20467;-82
2023/03/18 12:16:02;;;;;;;6.40;5.50;;;15.80;1.00;;;;;;5080952;28;20472;-84
2023/03/18 12:18:51;;;;;;;5.33;4.93;;;15.70;1.00;;;;;;5081526;28;20431;-84
2023/03/18 12:21:41;;;;;;;8.93;5.80;;;15.80;1.00;;;;;;5081153;28;20537;-82
2023/03/18 12:24:27;;;;;;;6.17;5.57;;;15.90;1.00;;;;;;5075255;28;20472;-83
2023/03/18 12:27:02;;;;;;;6.57;5.73;;;16.00;1.00;;;;;;5094106;28;20443;-82
2023/03/18 12:29:45;;;;;;;7.70;5.20;;;16.00;1.00;;;;;;5087153;28;20507;-83
2023/03/18 12:32:24;;;;;;;7.67;5.63;;;16.00;1.00;;;;;;5082583;28;20497;-82
2023/03/18 12:35:10;;;;;;;6.23;5.60;;;16.10;1.00;;;;;;5084826;28;20981;-82
2023/03/18 12:37:47;;;;;;;9.37;5.77;;;16.10;1.00;;;;;;5080201;28;20432;-83
2023/03/18 12:40:23;;;;;;;8.20;5.10;;;16.30;1.00;;;;;;5079374;28;20446;-84
2023/03/18 12:43:16;;;;;;;6.67;4.93;;;16.40;1.00;;;;;;5079230;28;20488;-82
2023/03/18 12:45:47;;;;;;;6.20;5.43;;;16.30;1.00;;;;;;5081197;28;20474;-83
2023/03/18 12:48:18;;;;;;;6.13;5.53;;;16.40;1.00;;;;;;5083545;28;20470;-83
2023/03/18 12:50:50;;;;;;;5.37;4.90;;;16.30;1.00;;;;;;5081897;28;20426;-83
2023/03/18 12:53:23;;;;;;;5.57;5.07;;;16.30;1.00;;;;;;5085208;28;20452;-83
2023/03/18 12:55:57;;;;;;;7.43;5.57;;;16.40;1.00;;;;;;5098234;28;20458;-85
2023/03/18 12:58:28;;;;;;;6.70;6.00;;;16.50;1.00;;;;;;5081511;28;20907;-82
2023/03/18 13:01:05;;;;;;;7.90;6.33;;;16.60;1.00;;;;;;5079855;28;20433;-82
2023/03/18 13:03:34;;;;;;;6.80;6.20;;;16.60;1.00;;;;;;5079562;28;20472;-82
2023/03/18 13:06:06;;;;;;;8.60;6.33;;;16.60;1.00;;;;;;5079782;28;20538;-82
2023/03/18 13:09:00;;;;;;;8.00;5.37;;;16.70;1.00;;;;;;5080117;28;20470;-82
2023/03/18 13:11:40;;;;;;;7.10;5.77;;;16.80;1.00;;;;;;5066211;28;20981;-82
2023/03/18 13:14:18;;;;;;;7.67;5.97;;;17.00;1.00;;;;;;5080350;28;20543;-82